Time;durP1;ratioP1;P1;durP2;ratioP2;P2;SDS_P1;SDS_P2;PMS_P1;PMS_P2;Temp;Humidity;BMP_temperature;BMP_pressure;BME280_temperature;BME280_humidity;BME280_pressure;Samples;Min_cycle;Max_cycle;Signal;HPM_P1;HPM_P2
2024/02/13 00:03:53;;;;;;;8.90;6.30;;;;;;;5.96;95.79;98951.16;218866;1258;141031;-70
2024/02/13 00:08:57;;;;;;;12.60;5.10;;;;;;;5.93;95.45;98955.15;218155;1261;140602;-68
2024/02/13 00:14:02;;;;;;;8.30;5.40;;;;;;;5.89;95.24;98962.34;217400;1261;139735;-69
2024/02/13 00:19:06;;;;;;;7.40;4.20;;;;;;;5.86;95.53;98971.92;217299;1260;140472;-70
2024/02/13 00:24:11;;;;;;;6.90;4.60;;;;;;;5.84;95.60;98980.09;217429;1259;140944;-69
2024/02/13 00:29:14;;;;;;;5.00;3.80;;;;;;;5.80;95.73;98985.13;217487;1260;140288;-67
2024/02/13 00:34:21;;;;;;;9.90;4.80;;;;;;;5.74;95.90;98991.12;217166;1261;139489;-68
2024/02/13 00:39:27;;;;;;;7.20;4.20;;;;;;;5.68;96.06;98992.58;217268;1260;139912;-70
2024/02/13 00:44:31;;;;;;;14.40;6.80;;;;;;;5.64;96.09;98998.27;217073;1258;139542;-69
2024/02/13 00:49:37;;;;;;;12.00;10.40;;;;;;;5.60;96.23;99002.58;217603;1258;139772;-69
2024/02/13 00:54:43;;;;;;;6.40;5.30;;;;;;;5.54;95.93;99005.90;219822;1260;140871;-70
2024/02/13 00:59:49;;;;;;;6.00;4.80;;;;;;;5.50;96.05;99019.73;217230;1261;139988;-72
2024/02/13 01:04:53;;;;;;;10.80;4.60;;;;;;;5.47;96.18;99027.38;216844;1260;140565;-72
2024/02/13 01:09:57;;;;;;;9.30;5.70;;;;;;;5.46;96.27;99032.07;216996;1261;139929;-69
2024/02/13 01:15:01;;;;;;;10.50;6.30;;;;;;;5.45;96.56;99036.30;216801;1258;141831;-69
2024/02/13 01:20:08;;;;;;;10.90;4.80;;;;;;;5.42;96.29;99040.56;217075;1260;139667;-69
2024/02/13 01:25:14;;;;;;;7.30;5.30;;;;;;;5.35;96.31;99045.33;216759;1259;140432;-72
2024/02/13 01:30:19;;;;;;;7.60;5.50;;;;;;;5.32;96.45;99054.79;216912;1262;139740;-71
2024/02/13 01:35:24;;;;;;;10.60;6.60;;;;;;;5.29;96.41;99062.50;217116;1258;139711;-70
2024/02/13 01:40:28;;;;;;;7.90;5.30;;;;;;;5.28;96.46;99064.17;216626;1258;140404;-69
2024/02/13 01:45:32;;;;;;;9.00;6.10;;;;;;;5.28;96.91;99070.23;216801;1262;139389;-69
2024/02/13 01:50:37;;;;;;;7.20;4.80;;;;;;;5.27;96.71;99073.38;216446;1261;141383;-69
2024/02/13 01:55:42;;;;;;;9.10;6.10;;;;;;;5.24;95.98;99083.32;216755;1261;141535;-69
2024/02/13 02:00:48;;;;;;;6.90;4.50;;;;;;;5.23;96.20;99085.04;216588;1261;141815;-69
2024/02/13 02:05:53;;;;;;;11.20;5.20;;;;;;;5.20;96.39;99090.27;216996;1260;140151;-69
2024/02/13 02:11:00;;;;;;;9.00;5.20;;;;;;;5.18;96.20;99093.11;217842;1260;140957;-69
2024/02/13 02:16:06;;;;;;;8.10;6.00;;;;;;;5.15;96.16;99098.70;216778;1257;140392;-69
2024/02/13 02:21:11;;;;;;;8.30;6.20;;;;;;;5.10;95.79;99108.23;216647;1262;140933;-69
2024/02/13 02:26:18;;;;;;;6.20;4.70;;;;;;;5.08;96.17;99118.12;217004;1261;140390;-71
2024/02/13 02:31:28;;;;;;;9.00;5.50;;;;;;;5.10;96.00;99121.65;217140;1257;139651;-69
2024/02/13 02:36:33;;;;;;;9.70;6.60;;;;;;;5.08;96.07;99124.14;217305;1262;139777;-69
2024/02/13 02:41:38;;;;;;;7.90;4.70;;;;;;;5.07;95.70;99126.73;219455;1259;140070;-71
2024/02/13 02:46:42;;;;;;;9.00;5.90;;;;;;;5.00;95.53;99132.43;219678;1258;139832;-71
2024/02/13 02:51:46;;;;;;;12.80;6.60;;;;;;;4.93;95.15;99142.06;219692;1257;140437;-70
2024/02/13 02:56:53;;;;;;;10.50;6.00;;;;;;;4.86;95.05;99148.42;219594;1257;140375;-70
2024/02/13 03:02:01;;;;;;;10.00;5.70;;;;;;;4.82;94.81;99150.55;216803;1259;139994;-69
2024/02/13 03:07:08;;;;;;;13.90;7.30;;;;;;;4.76;94.96;99156.06;217112;1258;140797;-69
2024/02/13 03:12:16;;;;;;;9.00;5.80;;;;;;;4.69;94.70;99160.04;217269;1257;140022;-69
2024/02/13 03:17:21;;;;;;;13.10;7.30;;;;;;;4.60;94.61;99167.67;216521;1258;139977;-68
2024/02/13 03:22:27;;;;;;;20.40;7.40;;;;;;;4.50;94.31;99176.09;217529;1261;139822;-69
2024/02/13 03:27:32;;;;;;;12.00;7.70;;;;;;;4.36;94.49;99181.73;216682;1262;141021;-69
2024/02/13 03:32:37;;;;;;;12.10;7.30;;;;;;;4.29;94.65;99189.10;216609;1264;140101;-68
2024/02/13 03:37:41;;;;;;;13.60;8.50;;;;;;;4.24;94.88;99200.13;216843;1263;139874;-69
2024/02/13 03:42:47;;;;;;;14.70;8.40;;;;;;;4.20;94.65;99206.17;216727;1257;140385;-69
2024/02/13 03:47:51;;;;;;;10.20;7.40;;;;;;;4.16;94.82;99210.52;216397;1261;139895;-69
2024/02/13 03:52:56;;;;;;;15.00;9.10;;;;;;;4.17;95.62;99225.17;216404;1261;140437;-70
2024/02/13 03:58:00;;;;;;;21.70;10.90;;;;;;;4.22;95.92;99229.43;217350;1257;139841;-69
2024/02/13 04:03:14;;;;;;;13.60;8.30;;;;;;;4.23;95.76;99234.05;216725;1262;141196;-70
2024/02/13 04:08:19;;;;;;;15.90;9.10;;;;;;;4.24;95.71;99234.63;218259;1257;141493;-70
2024/02/13 04:13:25;;;;;;;14.50;8.60;;;;;;;4.27;95.95;99239.81;217173;1263;139939;-70
2024/02/13 04:18:30;;;;;;;16.40;9.50;;;;;;;4.28;95.89;99241.99;216423;1258;139561;-70
2024/02/13 04:23:35;;;;;;;14.20;8.20;;;;;;;4.30;96.03;99253.71;216574;1262;140581;-69
2024/02/13 04:28:41;;;;;;;15.90;7.90;;;;;;;4.31;96.27;99255.41;216837;1257;140014;-70
2024/02/13 04:33:45;;;;;;;16.00;10.30;;;;;;;4.31;95.82;99262.64;216611;1260;141642;-69
2024/02/13 04:38:50;;;;;;;15.60;9.70;;;;;;;4.30;96.05;99270.67;216383;1257;734707;-70
2024/02/13 04:43:54;;;;;;;14.50;9.00;;;;;;;4.27;95.91;99270.93;218573;1257;140263;-69
2024/02/13 04:49:03;;;;;;;16.80;9.30;;;;;;;4.27;96.36;99271.92;218028;1257;140266;-69
2024/02/13 04:54:11;;;;;;;21.50;9.80;;;;;;;4.31;96.59;99273.60;219749;1257;236447;-70
2024/02/13 04:59:16;;;;;;;16.40;11.00;;;;;;;4.34;96.81;99280.70;216925;1261;140935;-70
2024/02/13 05:09:26;;;;;;;17.40;9.10;;;;;;;4.41;96.83;99294.66;216919;1257;221785;-68
2024/02/13 05:14:31;;;;;;;15.60;9.50;;;;;;;4.42;96.92;99303.43;217965;1257;141164;-68
2024/02/13 05:19:35;;;;;;;15.40;10.10;;;;;;;4.43;96.97;99299.61;217088;1257;140774;-69
2024/02/13 05:24:40;;;;;;;13.00;8.30;;;;;;;4.44;97.05;99304.41;216565;1262;140855;-69
2024/02/13 05:29:44;;;;;;;18.10;10.50;;;;;;;4.48;97.01;99313.45;217021;1257;140260;-67
2024/02/13 05:34:48;;;;;;;13.00;9.70;;;;;;;4.49;97.07;99327.10;216618;1257;140640;-70
2024/02/13 05:39:55;;;;;;;12.70;9.50;;;;;;;4.50;97.15;99333.31;216610;1257;140931;-69
2024/02/13 05:44:59;;;;;;;17.10;9.70;;;;;;;4.52;97.10;99341.30;216499;1257;140510;-68
2024/02/13 05:50:06;;;;;;;19.10;11.10;;;;;;;4.53;97.37;99343.46;217992;1258;140358;-70
2024/02/13 05:55:11;;;;;;;;;;;;;;;4.56;97.52;99350.84;217063;1262;141673;-70
2024/02/13 06:00:16;;;;;;;17.10;10.60;;;;;;;4.55;97.56;99361.05;217403;1262;126078;-69
2024/02/13 06:05:21;;;;;;;23.80;10.50;;;;;;;4.54;97.31;99363.80;216884;1258;141879;-71
2024/02/13 06:10:27;;;;;;;14.30;9.10;;;;;;;4.54;97.28;99374.89;216907;1262;140556;-71
2024/02/13 06:15:33;;;;;;;12.30;9.50;;;;;;;4.55;97.66;99389.39;217620;1261;139744;-71
2024/02/13 06:20:37;;;;;;;18.60;10.80;;;;;;;4.57;97.64;99395.23;217186;1257;140260;-69
2024/02/13 06:25:42;;;;;;;12.40;9.90;;;;;;;4.62;97.80;99410.23;217583;1257;139944;-69
2024/02/13 06:30:45;;;;;;;11.30;8.30;;;;;;;4.67;97.78;99423.11;219690;1257;139992;-70
2024/02/13 06:35:54;;;;;;;13.60;10.90;;;;;;;4.68;97.36;99427.98;218250;1257;140442;-73
2024/02/13 06:40:59;;;;;;;15.00;9.50;;;;;;;4.71;97.82;99439.73;219646;1257;142395;-71
2024/02/13 06:46:04;;;;;;;17.90;11.20;;;;;;;4.77;97.24;99450.41;219592;1257;140643;-72
2024/02/13 06:51:12;;;;;;;17.90;11.10;;;;;;;4.84;97.47;99460.58;219704;1257;141265;-73
2024/02/13 06:56:18;;;;;;;;;;;;;;;4.91;97.69;99472.10;217163;1258;140109;-73
2024/02/13 07:01:23;;;;;;;20.00;12.80;;;;;;;4.92;97.73;99477.45;216930;1262;128103;-75
2024/02/13 07:06:27;;;;;;;27.80;12.30;;;;;;;4.97;97.69;99486.43;216471;1261;141223;-72
2024/02/13 07:11:53;;;;;;;18.90;12.20;;;;;;;5.02;97.57;99499.48;217342;1257;139698;-71
2024/02/13 07:17:00;;;;;;;10.50;8.40;;;;;;;5.06;97.46;99496.83;216838;1262;140307;-71
2024/02/13 07:22:04;;;;;;;17.80;10.00;;;;;;;5.14;97.61;99504.36;216514;1261;140815;-71
2024/02/13 07:27:09;;;;;;;15.00;9.00;;;;;;;5.20;97.70;99508.30;217035;1262;140397;-70
2024/02/13 07:32:14;;;;;;;15.70;10.40;;;;;;;5.25;97.14;99517.41;217116;1258;139756;-70
2024/02/13 07:37:19;;;;;;;14.80;10.30;;;;;;;5.31;97.39;99526.07;216546;1261;140739;-70
2024/02/13 07:42:25;;;;;;;22.60;12.20;;;;;;;5.40;97.13;99530.38;216534;1257;141245;-70
2024/02/13 07:47:29;;;;;;;16.70;11.70;;;;;;;5.48;97.24;99535.82;216576;1258;140056;-69
2024/02/13 07:52:34;;;;;;;15.40;9.60;;;;;;;5.52;97.19;99547.42;216426;1259;140342;-70
2024/02/13 07:57:38;;;;;;;17.50;10.40;;;;;;;5.58;96.90;99555.42;216737;1257;139922;-72
2024/02/13 08:02:42;;;;;;;16.30;11.40;;;;;;;5.62;97.18;99566.16;217058;1257;140499;-69
2024/02/13 08:07:47;;;;;;;10.90;7.20;;;;;;;5.67;96.62;99570.95;217122;1257;141739;-70
2024/02/13 08:12:51;;;;;;;13.20;9.10;;;;;;;5.76;96.64;99569.88;217431;1257;140119;-74
2024/02/13 08:17:55;;;;;;;16.80;9.70;;;;;;;5.93;96.65;99566.52;217353;1257;140721;-72
2024/02/13 08:23:00;;;;;;;16.00;8.70;;;;;;;6.11;96.31;99562.91;218005;1258;140249;-73
2024/02/13 08:28:04;;;;;;;10.50;8.30;;;;;;;6.26;95.96;99565.29;219665;1257;140392;-73
2024/02/13 08:33:09;;;;;;;13.60;8.10;;;;;;;6.38;95.78;99575.09;219625;1257;140146;-71
2024/02/13 08:38:13;;;;;;;9.10;6.80;;;;;;;6.53;95.46;99575.70;219787;1257;141110;-72
2024/02/13 08:43:17;;;;;;;18.00;8.90;;;;;;;6.77;94.93;99581.23;216917;1260;139788;-74
2024/02/13 08:48:23;;;;;;;11.30;6.90;;;;;;;7.02;94.73;99585.09;217394;1257;139712;-74
2024/02/13 08:53:29;;;;;;;10.60;9.50;;;;;;;7.25;94.45;99593.15;217037;1258;139699;-74
2024/02/13 08:58:33;;;;;;;11.40;6.50;;;;;;;7.43;93.91;99604.73;216877;1257;140088;-74
2024/02/13 09:03:37;;;;;;;12.30;7.50;;;;;;;7.56;93.50;99607.20;216951;1257;139629;-73
2024/02/13 09:08:41;;;;;;;8.90;7.00;;;;;;;7.67;93.05;99608.48;216820;1259;140251;-69
2024/02/13 09:13:46;;;;;;;9.40;8.00;;;;;;;7.88;92.59;99623.35;217013;1258;139405;-70
2024/02/13 09:18:54;;;;;;;17.40;7.30;;;;;;;7.93;92.02;99626.40;218315;1258;140772;-70
2024/02/13 09:24:01;;;;;;;8.70;6.40;;;;;;;7.96;91.53;99633.38;216851;1261;140064;-70
2024/02/13 09:29:07;;;;;;;8.20;6.20;;;;;;;7.86;90.57;99651.13;217998;1258;139978;-70
2024/02/13 09:34:12;;;;;;;9.40;7.10;;;;;;;7.66;90.10;99654.70;217092;1261;140381;-71
2024/02/13 09:39:17;;;;;;;7.10;5.50;;;;;;;7.70;90.21;99662.66;217496;1258;139163;-71
2024/02/13 09:44:20;;;;;;;20.80;6.90;;;;;;;7.65;89.82;99668.42;217752;1258;140202;-73
2024/02/13 09:49:26;;;;;;;10.80;6.50;;;;;;;7.55;90.04;99674.42;217107;1257;139573;-74
2024/02/13 09:54:34;;;;;;;7.20;6.00;;;;;;;7.48;89.59;99681.29;217538;1257;140657;-72
2024/02/13 09:59:38;;;;;;;8.80;6.90;;;;;;;7.40;89.33;99687.80;216911;1257;139318;-72
2024/02/13 10:04:44;;;;;;;10.50;5.90;;;;;;;7.33;89.19;99690.34;216614;1258;140178;-74
2024/02/13 10:09:49;;;;;;;8.50;6.10;;;;;;;7.25;88.71;99693.63;217101;1257;140807;-72
2024/02/13 10:15:00;;;;;;;11.50;6.00;;;;;;;7.21;89.12;99699.67;217953;1259;140350;-74
2024/02/13 10:20:06;;;;;;;8.80;6.60;;;;;;;7.07;88.54;99713.95;217492;1258;139603;-70
2024/02/13 10:25:11;;;;;;;6.40;5.00;;;;;;;7.03;88.61;99720.08;218286;1257;140122;-72
2024/02/13 10:30:27;;;;;;;10.80;4.30;;;;;;;7.08;88.50;99724.33;217288;1261;139912;-71
2024/02/13 10:35:32;;;;;;;27.30;7.30;;;;;;;7.13;87.76;99735.36;217407;1261;139927;-71
2024/02/13 10:40:39;;;;;;;5.70;4.50;;;;;;;7.17;87.48;99730.94;217786;1257;140769;-71
2024/02/13 10:45:49;;;;;;;5.10;4.50;;;;;;;7.13;86.57;99737.27;217190;1257;140777;-71
2024/02/13 10:50:57;;;;;;;7.30;4.70;;;;;;;7.11;86.27;99741.65;217347;1257;139675;-71
2024/02/13 10:56:02;;;;;;;4.80;3.80;;;;;;;7.04;86.03;99742.15;218376;1261;140141;-69
2024/02/13 11:01:07;;;;;;;5.10;4.30;;;;;;;6.95;85.64;99744.36;216791;1261;139952;-72
2024/02/13 11:06:13;;;;;;;4.00;3.30;;;;;;;6.88;85.73;99747.96;217261;1261;139822;-70
2024/02/13 11:11:24;;;;;;;11.70;6.40;;;;;;;6.79;85.24;99751.50;216652;1261;139779;-71
2024/02/13 11:16:33;;;;;;;6.10;5.00;;;;;;;6.73;85.06;99752.42;216882;1261;139642;-71
2024/02/13 11:21:41;;;;;;;6.80;5.00;;;;;;;6.70;84.95;99755.05;216676;1258;139666;-71
2024/02/13 11:26:46;;;;;;;5.60;4.30;;;;;;;6.83;85.08;99757.35;216684;1257;140470;-71
2024/02/13 11:31:58;;;;;;;6.20;5.50;;;;;;;7.01;85.22;99750.48;216670;1257;139165;-70
2024/02/13 11:37:13;;;;;;;4.90;4.30;;;;;;;7.22;85.18;99755.71;217380;1261;142333;-70
2024/02/13 11:42:19;;;;;;;8.50;7.00;;;;;;;7.35;84.39;99760.03;216733;1257;140075;-70
2024/02/13 11:47:24;;;;;;;4.20;3.50;;;;;;;7.39;84.31;99764.52;216866;1257;139472;-71
2024/02/13 11:52:31;;;;;;;5.40;3.90;;;;;;;7.34;83.69;99772.57;217361;1258;140946;-71
2024/02/13 11:57:40;;;;;;;5.90;3.80;;;;;;;7.18;83.64;99777.55;216826;1259;140027;-71
2024/02/13 12:02:49;;;;;;;4.90;4.10;;;;;;;7.02;83.35;99786.31;216827;1257;140028;-70
2024/02/13 12:07:54;;;;;;;5.20;4.30;;;;;;;6.91;83.45;99795.13;216825;1257;139580;-70
2024/02/13 12:13:00;;;;;;;5.80;4.30;;;;;;;6.85;83.58;99800.06;216695;1260;141117;-71
2024/02/13 12:18:11;;;;;;;6.10;4.20;;;;;;;6.92;83.45;99795.11;217428;1259;140301;-70
2024/02/13 12:23:17;;;;;;;6.90;5.20;;;;;;;7.02;83.23;99795.64;217070;1257;140019;-71
2024/02/13 12:28:22;;;;;;;6.10;4.60;;;;;;;7.17;83.55;99800.56;217891;1257;139794;-72
2024/02/13 12:33:28;;;;;;;4.60;4.20;;;;;;;7.30;83.42;99801.88;219688;1257;140343;-71
2024/02/13 12:38:36;;;;;;;6.60;4.40;;;;;;;7.40;82.78;99810.43;218157;1259;141523;-70
2024/02/13 12:43:47;;;;;;;4.90;4.40;;;;;;;7.45;82.50;99812.57;217551;1259;139278;-71
2024/02/13 12:48:54;;;;;;;6.00;3.60;;;;;;;7.43;82.08;99812.95;217071;1261;139612;-72
2024/02/13 12:54:06;;;;;;;7.50;4.00;;;;;;;7.45;82.09;99821.42;217865;1258;140153;-71
2024/02/13 12:59:12;;;;;;;4.70;3.90;;;;;;;7.36;81.71;99821.11;216981;1259;140646;-71
2024/02/13 13:04:17;;;;;;;6.80;3.60;;;;;;;7.31;81.42;99828.77;217928;1258;140220;-70
2024/02/13 13:09:22;;;;;;;6.50;3.50;;;;;;;7.30;81.10;99836.05;217300;1260;139521;-71
2024/02/13 13:14:31;;;;;;;6.40;3.20;;;;;;;7.33;80.95;99842.91;216757;1259;139297;-71
2024/02/13 13:19:37;;;;;;;10.70;3.70;;;;;;;7.32;80.80;99853.29;216721;1261;140084;-71
2024/02/13 13:24:42;;;;;;;8.50;4.00;;;;;;;7.29;80.86;99858.69;216885;1257;140047;-71
2024/02/13 13:29:47;;;;;;;5.10;2.50;;;;;;;7.25;80.37;99863.77;217553;1259;140425;-72
2024/02/13 13:34:51;;;;;;;6.40;2.50;;;;;;;7.25;80.07;99871.10;216749;1257;141049;-71
2024/02/13 13:40:04;;;;;;;4.90;2.40;;;;;;;7.23;79.55;99877.88;216717;1260;139636;-71
2024/02/13 13:45:14;;;;;;;3.30;2.40;;;;;;;7.17;79.34;99879.77;216535;1257;139801;-71
2024/02/13 13:50:23;;;;;;;4.20;2.10;;;;;;;7.09;79.29;99885.45;216978;1261;139728;-71
2024/02/13 13:55:28;;;;;;;2.60;2.40;;;;;;;6.97;79.08;99887.90;216878;1257;139414;-71
2024/02/13 14:00:36;;;;;;;3.00;2.50;;;;;;;6.89;78.73;99895.00;216886;1259;140339;-71
2024/02/13 14:05:41;;;;;;;6.50;3.50;;;;;;;6.82;78.84;99899.38;216472;1262;140467;-71
2024/02/13 14:10:46;;;;;;;3.80;2.90;;;;;;;6.76;78.87;99905.89;217294;1257;139520;-70
2024/02/13 14:15:51;;;;;;;4.60;2.60;;;;;;;6.76;79.21;99910.05;217225;1257;139258;-71
2024/02/13 14:20:56;;;;;;;4.30;2.60;;;;;;;6.72;78.95;99913.70;219849;1257;140954;-71
2024/02/13 14:26:00;;;;;;;3.70;2.70;;;;;;;6.68;78.51;99918.31;218790;1260;139605;-69
2024/02/13 14:31:05;;;;;;;5.30;2.90;;;;;;;6.63;78.51;99924.17;217730;1261;140077;-70
2024/02/13 14:36:10;;;;;;;4.70;2.90;;;;;;;6.58;78.56;99928.38;216664;1261;139905;-70
2024/02/13 14:41:16;;;;;;;6.70;3.70;;;;;;;6.52;78.51;99934.48;216832;1260;141752;-70
2024/02/13 14:46:21;;;;;;;8.30;3.40;;;;;;;6.50;78.80;99936.52;216539;1260;142001;-71
2024/02/13 14:51:26;;;;;;;7.00;4.20;;;;;;;6.42;78.64;99941.61;216860;1259;139526;-70
2024/02/13 14:56:34;;;;;;;4.80;4.30;;;;;;;6.30;78.78;99954.42;216663;1257;139640;-70
2024/02/13 15:01:41;;;;;;;4.80;3.80;;;;;;;6.24;78.50;99962.60;216884;1258;140606;-70
2024/02/13 15:06:48;;;;;;;5.30;4.80;;;;;;;6.13;78.90;99965.19;216777;1258;139733;-69
2024/02/13 15:11:56;;;;;;;8.30;5.10;;;;;;;6.02;78.77;99971.39;216571;1258;139709;-70
2024/02/13 15:17:02;;;;;;;12.00;5.40;;;;;;;5.98;78.94;99974.07;217695;1258;140336;-69
2024/02/13 15:22:08;;;;;;;10.20;5.10;;;;;;;5.96;79.32;99975.45;216740;1258;140002;-70
2024/02/13 15:27:11;;;;;;;11.20;6.40;;;;;;;5.95;79.36;99982.77;216803;1260;140139;-69
2024/02/13 15:32:16;;;;;;;16.10;7.10;;;;;;;5.91;79.47;99989.82;216785;1260;139680;-70
2024/02/13 15:48:06;;;;;;;16.80;9.10;;;;;;;5.85;79.83;100011.50;216572;1262;141538;-69
2024/02/13 15:53:11;;;;;;;11.10;7.00;;;;;;;5.78;80.09;100012.80;216569;1262;139815;-70
2024/02/13 15:58:16;;;;;;;13.70;6.50;;;;;;;5.74;80.11;100015.26;218316;1261;140164;-70
2024/02/13 16:03:21;;;;;;;9.40;5.20;;;;;;;5.72;80.38;100018.70;216551;1262;140870;-70
2024/02/13 16:08:25;;;;;;;8.20;4.70;;;;;;;5.68;80.60;100024.09;216946;1260;140023;-70
2024/02/13 16:13:36;;;;;;;7.70;4.00;;;;;;;5.62;80.58;100026.66;216860;1260;141246;-70
2024/02/13 16:18:43;;;;;;;11.90;5.10;;;;;;;5.57;80.47;100032.41;219078;1259;140224;-70
2024/02/13 16:23:48;;;;;;;11.30;5.40;;;;;;;5.57;80.68;100041.55;216617;1260;140288;-70
2024/02/13 16:28:53;;;;;;;9.60;4.80;;;;;;;5.55;80.59;100047.61;216864;1257;140712;-68
2024/02/13 16:33:58;;;;;;;10.50;5.20;;;;;;;5.53;80.64;100053.86;217342;1259;140659;-69
2024/02/13 16:39:04;;;;;;;5.40;4.40;;;;;;;5.52;80.41;100059.34;218513;1259;314494;-69
2024/02/13 16:44:12;;;;;;;4.40;3.60;;;;;;;5.52;80.56;100068.67;216857;1262;140232;-69
2024/02/13 16:49:20;;;;;;;6.80;4.50;;;;;;;5.52;80.28;100076.27;216577;1261;139890;-69
2024/02/13 16:54:29;;;;;;;6.00;4.30;;;;;;;5.53;80.48;100080.70;216618;1258;234892;-69
2024/02/13 16:59:33;;;;;;;;;;;;;;;5.51;80.34;100085.74;216623;1261;139654;-69
2024/02/13 17:04:37;;;;;;;7.60;3.70;;;;;;;5.47;80.55;100096.23;217030;1261;126298;-69
2024/02/13 17:09:41;;;;;;;9.60;4.60;;;;;;;5.47;80.84;100100.50;217337;1261;140669;-69
2024/02/13 17:14:45;;;;;;;6.80;4.60;;;;;;;5.46;80.67;100105.82;216610;1258;139859;-68
2024/02/13 17:19:49;;;;;;;7.50;4.10;;;;;;;5.43;80.88;100111.45;216994;1260;139726;-69
2024/02/13 17:24:53;;;;;;;5.80;3.50;;;;;;;5.37;80.53;100114.89;216738;1259;141900;-68
2024/02/13 17:29:58;;;;;;;5.70;3.70;;;;;;;5.32;80.80;100114.03;216521;1260;139745;-68
2024/02/13 17:35:04;;;;;;;8.30;4.90;;;;;;;5.29;80.75;100121.21;218076;1261;139855;-69
2024/02/13 17:40:12;;;;;;;6.50;4.80;;;;;;;5.30;81.00;100120.81;216607;1260;140285;-69
2024/02/13 17:45:17;;;;;;;7.30;5.20;;;;;;;5.31;81.28;100121.38;218201;1261;142199;-69
2024/02/13 17:50:21;;;;;;;5.50;3.90;;;;;;;5.29;81.33;100124.27;217071;1262;139923;-69
2024/02/13 17:55:26;;;;;;;8.60;4.50;;;;;;;5.29;81.29;100123.36;216741;1260;140429;-68
2024/02/13 18:00:32;;;;;;;10.30;5.30;;;;;;;5.26;81.41;100125.00;216755;1260;140282;-69
2024/02/13 18:05:39;;;;;;;12.80;8.10;;;;;;;5.21;81.69;100123.90;216848;1261;140221;-69
2024/02/13 18:10:43;;;;;;;12.10;5.20;;;;;;;5.16;81.55;100129.08;217961;1258;141815;-69
2024/02/13 18:15:47;;;;;;;11.30;6.50;;;;;;;5.12;81.74;100133.11;219575;1260;141672;-69
2024/02/13 18:20:52;;;;;;;6.10;4.90;;;;;;;5.10;81.59;100137.23;219237;1259;139900;-69
2024/02/13 18:25:56;;;;;;;12.60;7.10;;;;;;;5.11;82.14;100139.44;217937;1259;140047;-69
2024/02/13 18:31:02;;;;;;;9.90;5.40;;;;;;;5.12;82.19;100143.52;217304;1262;140066;-68
2024/02/13 18:36:08;;;;;;;8.20;6.00;;;;;;;5.12;82.35;100144.77;216749;1259;139927;-68
2024/02/13 18:41:16;;;;;;;11.20;7.90;;;;;;;5.10;82.39;100146.35;218045;1260;139903;-69
2024/02/13 18:46:21;;;;;;;15.80;7.10;;;;;;;5.09;82.26;100149.87;218546;1258;142073;-69
2024/02/13 18:51:26;;;;;;;9.30;6.90;;;;;;;5.08;83.01;100162.13;216732;1262;207697;-68
2024/02/13 18:56:34;;;;;;;15.90;7.40;;;;;;;5.06;82.52;100159.84;216579;1257;139867;-69
2024/02/13 19:01:44;;;;;;;19.60;7.80;;;;;;;5.04;82.70;100164.86;216773;1258;139965;-68
2024/02/13 19:06:49;;;;;;;14.20;7.00;;;;;;;5.02;82.90;100164.20;217294;1258;140921;-68
2024/02/13 19:11:54;;;;;;;12.50;7.90;;;;;;;4.96;82.70;100168.63;216736;1262;140150;-68
2024/02/13 19:16:58;;;;;;;21.40;10.30;;;;;;;4.90;83.04;100173.98;217318;1260;140777;-68
2024/02/13 19:22:03;;;;;;;14.10;8.60;;;;;;;4.89;83.41;100173.02;217608;1261;141266;-68
2024/02/13 19:27:09;;;;;;;13.30;8.50;;;;;;;4.83;83.13;100173.08;218358;1260;140908;-69
2024/02/13 19:32:15;;;;;;;16.00;8.90;;;;;;;4.81;83.19;100178.69;216762;1258;139883;-68
2024/02/13 19:37:19;;;;;;;12.90;7.80;;;;;;;4.77;83.20;100183.15;217841;1262;208250;-68
2024/02/13 19:42:24;;;;;;;14.40;8.80;;;;;;;4.69;83.12;100190.16;218784;1258;140703;-69
2024/02/13 19:47:28;;;;;;;13.20;7.70;;;;;;;4.64;83.24;100199.23;216794;1260;140765;-69
2024/02/13 19:52:36;;;;;;;17.70;9.10;;;;;;;4.61;83.48;100201.34;219839;1259;140097;-69
2024/02/13 19:57:40;;;;;;;14.40;9.80;;;;;;;4.60;83.54;100206.58;216652;1261;139840;-69
2024/02/13 20:02:45;;;;;;;19.80;9.10;;;;;;;4.56;83.57;100205.61;217079;1261;142242;-69
2024/02/13 20:07:49;;;;;;;18.10;9.80;;;;;;;4.52;83.52;100214.38;218561;1257;140077;-69
2024/02/13 20:12:55;;;;;;;16.40;7.10;;;;;;;4.47;83.57;100216.09;216817;1261;140338;-69
2024/02/13 20:18:01;;;;;;;13.40;7.60;;;;;;;4.41;83.54;100223.48;217676;1258;140645;-69
2024/02/13 20:23:06;;;;;;;12.50;8.90;;;;;;;4.37;83.85;100223.02;217587;1257;140693;-69
2024/02/13 20:28:11;;;;;;;21.70;9.50;;;;;;;4.30;83.78;100225.23;217853;1262;141193;-69
2024/02/13 20:33:15;;;;;;;13.30;7.50;;;;;;;4.20;83.68;100226.16;216920;1258;139803;-68
2024/02/13 20:38:22;;;;;;;14.90;7.50;;;;;;;4.09;83.67;100227.09;217095;1262;139837;-68
2024/02/13 20:43:28;;;;;;;18.80;8.80;;;;;;;3.97;83.69;100232.19;218069;1261;140408;-68
2024/02/13 20:48:33;;;;;;;13.60;8.30;;;;;;;3.88;83.92;100233.48;217259;1257;140666;-68
2024/02/13 20:53:38;;;;;;;19.30;7.80;;;;;;;3.78;84.12;100233.39;217012;1262;140279;-67
2024/02/13 20:58:45;;;;;;;13.50;8.40;;;;;;;3.66;84.16;100239.09;217586;1257;140194;-67
2024/02/13 21:03:49;;;;;;;15.10;8.80;;;;;;;3.59;84.51;100244.86;217381;1262;142085;-66
2024/02/13 21:08:54;;;;;;;14.10;7.70;;;;;;;3.55;84.92;100246.80;217284;1262;140145;-66
2024/02/13 21:14:00;;;;;;;16.60;8.50;;;;;;;3.51;84.70;100250.06;217138;1257;140903;-69
2024/02/13 21:19:07;;;;;;;23.00;10.20;;;;;;;3.52;85.02;100250.52;217364;1257;141446;-67
2024/02/13 21:24:13;;;;;;;17.20;9.00;;;;;;;3.50;85.14;100256.98;217718;1257;140146;-68
2024/02/13 21:29:18;;;;;;;20.20;10.10;;;;;;;3.48;85.37;100259.34;217746;1262;139933;-66
2024/02/13 21:34:25;;;;;;;19.30;11.10;;;;;;;3.48;85.50;100262.86;217924;1257;140348;-68
2024/02/13 21:39:29;;;;;;;;;;;;;;;3.46;85.42;100266.47;217365;1257;139893;-67
2024/02/13 21:44:34;;;;;;;19.70;10.80;;;;;;;3.42;85.64;100268.50;218472;1260;126284;-67
2024/02/13 21:49:38;;;;;;;23.70;12.20;;;;;;;3.40;85.79;100269.23;217363;1261;141557;-68
2024/02/13 21:54:44;;;;;;;21.00;11.20;;;;;;;3.38;85.75;100271.07;217881;1261;140012;-68
2024/02/13 21:59:48;;;;;;;19.40;10.80;;;;;;;3.35;85.77;100271.56;219700;1257;140951;-67
2024/02/13 22:04:53;;;;;;;22.40;13.50;;;;;;;3.33;85.89;100272.37;219853;1257;140187;-66
2024/02/13 22:09:57;;;;;;;23.90;14.10;;;;;;;3.30;85.88;100273.90;218889;1257;140999;-68
2024/02/13 22:15:02;;;;;;;25.00;13.10;;;;;;;3.28;85.92;100276.32;217240;1257;140577;-68
2024/02/13 22:20:08;;;;;;;23.80;13.80;;;;;;;3.26;86.09;100280.02;217963;1258;140145;-68
2024/02/13 22:25:12;;;;;;;24.10;12.90;;;;;;;3.27;86.44;100280.05;216735;1261;140361;-69
2024/02/13 22:30:17;;;;;;;19.80;14.20;;;;;;;3.30;86.85;100282.17;217538;1258;140156;-66
2024/02/13 22:35:21;;;;;;;21.60;13.60;;;;;;;3.29;86.58;100287.17;217482;1257;140866;-68
2024/02/13 22:40:26;;;;;;;28.90;13.50;;;;;;;3.27;86.66;100289.40;219016;1258;140069;-68
2024/02/13 22:45:33;;;;;;;25.70;13.60;;;;;;;3.23;86.85;100293.33;217084;1258;141058;-66
2024/02/13 22:50:37;;;;;;;20.30;13.20;;;;;;;3.24;87.19;100296.39;217175;1258;140821;-69
2024/02/13 22:55:41;;;;;;;29.50;14.70;;;;;;;3.27;87.26;100298.71;216898;1260;141691;-68
2024/02/13 23:00:48;;;;;;;27.60;15.00;;;;;;;3.30;87.46;100299.72;217529;1260;141259;-68
2024/02/13 23:05:55;;;;;;;26.20;15.50;;;;;;;3.32;87.42;100306.23;217415;1259;139840;-70
2024/02/13 23:10:59;;;;;;;29.40;14.60;;;;;;;3.29;87.60;100301.53;218762;1261;141229;-68
2024/02/13 23:16:06;;;;;;;26.90;14.40;;;;;;;3.34;87.79;100302.99;217718;1258;140523;-68
2024/02/13 23:21:11;;;;;;;27.10;13.60;;;;;;;3.35;87.59;100305.96;218309;1257;140160;-69
2024/02/13 23:26:16;;;;;;;28.10;16.20;;;;;;;3.32;87.64;100311.44;217102;1263;139845;-68
2024/02/13 23:31:24;;;;;;;25.80;14.20;;;;;;;3.30;87.51;100311.64;217760;1257;141970;-68
2024/02/13 23:36:28;;;;;;;31.50;18.40;;;;;;;3.27;87.74;100312.35;217646;1258;141955;-67
2024/02/13 23:41:33;;;;;;;19.70;11.00;;;;;;;3.23;87.60;100312.27;217470;1257;142103;-69